LFPG/CDG METAR and TAF weather

Enter ICAO airport designator
Station Type Date Time Source
LFPG METAR 2020/04/05 06:00 UTC NOAA

LFPG 050600Z AUTO 12011KT CAVOK 08/01 Q1018 NOSIG


Station Type Date Time Source
LFPG Decoded METAR 2020/04/05 06:00 UTC NOAA

Paris-Aeroport Charles De Gaulle, France (LFPG) 49-01N 002-32E 109M
Apr 05, 2020 - 02:00 AM EDT / 2020.04.05 0600 UTC
Wind: from the ESE (120 degrees) at 13 MPH (11 KT):0
Visibility: greater than 7 mile(s):0
Temperature: 46 F (8 C)
Dew Point: 33 F (1 C)
Relative Humidity: 61%
Pressure (altimeter): 30.06 in. Hg (1018 hPa)
ob: LFPG 050600Z AUTO 12011KT CAVOK 08/01 Q1018 NOSIG
cycle: 6

Station Type Date Time Source
LFPG TAF 2020/04/05 06:51 UTC NOAA

TAF LFPG 050500Z 0506/0612 11010KT CAVOK TX21/0515Z TN07/0506Z
BECMG 0604/0606 18010KT
TEMPO 0610/0612 21015G25KT BKN014

Example: see airport list